Sheridan, WY

12:20 AM MDT on September 18, 2014 (GMT -0600)
South Big Horn County | Change Station
CLOSE
Current Station
Airport
Location: Greybull,
Elevation: 3934 ft
Nearby Weather Stations

Elev 3934 ft 44.52 °N, 108.08 °W | Updated 27 minutes ago

Partly Cloudy
Partly Cloudy
61 °F
Feels Like 61 °F
N
7
Wind Variable Wind from NW

Today
High -- | Low -- °F
--% Chance of Precip.
Yesterday
High -- | Low -- °F
Precip. -- in
6:50 AM 7:12 PM
Waning Crescent, 29% visible
Pressure 29.84 in
Visibility 10.0 miles
Clouds Clear
Dew Point 49 °F
Humidity 64%
Rainfall 0.00 in
Snow Depth Not available.
UV 0 out of 12
Pollen 5.80 out of 12
Air Quality Not available.
Flu Activity Not available.
METAR KGEY 180553Z AUTO 32006KT 10SM CLR 16/09 A2993 RMK AO2 SLP104 60000 T01610094 10289 20161 56002

More Conditions Fewer Conditions

Pressure 29.84 in
Visibility 10.0 miles
Clouds Clear
Dew Point 49 °F
Humidity 64%
Rainfall 0.00 in
Snow Depth Not available.
UV 0 out of 12
Pollen 5.80 out of 12
Air Quality Not available.
Flu Activity Not available.
METAR KGEY 180553Z AUTO 32006KT 10SM CLR 16/09 A2993 RMK AO2 SLP104 60000 T01610094 10289 20161 56002

More Conditions Fewer Conditions

10-Day Weather Forecast

Almanac

Astronomy

Sep. 18, 2014 Rise Set
Actual Time 6:50 AM MDT 7:12 PM MDT
Civil Twilight 6:20 AM MDT 7:42 PM MDT
Nautical Twilight 5:46 AM MDT 8:16 PM MDT
Astronomical Twilight 5:10 AM MDT 8:51 PM MDT
Moon 1:34 AM MDT 4:14 PM MDT
Length of Visible Light 13h 21m
Length of Day
12h 22m
Tomorrow will be 3m 5s shorter.
Waning Crescent, 29% of the Moon is Illuminated
Today
Waning Crescent
Sep 24
New
Oct 1
First Quarter
Oct 8
Full
Oct 15
Last Quarter

Today's Extremes

State Highs State Lows

Community

WunderPhotos

Upload Photos

1,754,298 photos uploaded!

Nearby

Snow Depth

Station Depth Elevation
Phillips Bench 0 in 8200 ft
Gros Ventre Summit 1 in 8750 ft
Reno Hill 0 in 8500 ft
Little Warm 0 in 9370 ft
Willow Creek 0 in 8450 ft

Earthquake Activity

City Distance Mag. Time & Date
No recent earthquake activity has been reported nearby.
Minimum magnitude displayed is 2.5.

Coastal Water Temperatures

Place Temperature
No Stations Reporting

Nearby Weather Stations